• Join FlightAware (Why Join?)
  • Login
  • US Flag 
Trick or treat! (Boo!!) 
05:59AM EDT


 

Airport Tracker/Info


-or-


 

Live Flight TrackerFlight Track Log ✈ CSH9152 ✈ 27-Aug-2014 ✈ ZBAA / PEK - ZSHC / HGH

Flight Track Log - Related Links

Times and Time Zones

All times are in EDT time to prevent confusion due to time zone crossing. See the CSH9152 flight status page for this flight to view local times or setup timezone preferences in your user account.

Time Position Orientation Groundspeed Altitude Reporting Facility
EDT Latitude Longitude Course Direction KTS MPH feet Rate Location/Type
02:29AM 39.4515 116.8623 161° South  Level Estimated
02:30AM 39.3616 116.9015 161° South  Level Estimated
02:31AM 39.2718 116.9407 161° South  Level Estimated
02:32AM 39.1819 116.9798 161° South  Level Estimated
02:33AM 39.0920 117.0187 161° South  Level Estimated
02:34AM 39.0021 117.0576 161° South  Level Estimated
02:35AM 38.9122 117.0963 161° South  Level Estimated
02:36AM 38.8223 117.1350 161° South  Level Estimated
02:37AM 38.7323 117.1736 162° South  Level Estimated
02:38AM 38.6423 117.2120 162° South  Level Estimated
02:39AM 38.5524 117.2504 162° South  Level Estimated
02:40AM 38.4624 117.2887 162° South  Level Estimated
02:41AM 38.3724 117.3269 162° South  Level Estimated
02:42AM 38.2824 117.3650 162° South  Level Estimated
02:43AM 38.1924 117.4029 162° South  Level Estimated
02:44AM 38.1023 117.4408 162° South  Level Estimated
02:45AM 38.0123 117.4787 162° South  Level Estimated
02:46AM 37.9222 117.5164 162° South  Level Estimated
02:47AM 37.8322 117.5540 162° South  Level Estimated
02:48AM 37.7421 117.5915 162° South  Level Estimated
02:49AM 37.6520 117.6290 162° South  Level Estimated
02:50AM 37.5619 117.6663 162° South  Level Estimated
02:51AM 37.4718 117.7036 162° South  Level Estimated
02:52AM 37.3817 117.7407 162° South  Level Estimated
02:53AM 37.2915 117.7778 162° South  Level Estimated
02:54AM 37.2014 117.8148 162° South  Level Estimated
02:55AM 37.1112 117.8517 162° South  Level Estimated
02:56AM 37.0210 117.8885 162° South  Level Estimated
02:57AM 36.9309 117.9252 162° South  Level Estimated
02:58AM 36.8407 117.9619 162° South  Level Estimated
02:59AM 36.7505 117.9984 162° South  Level Estimated
03:00AM 36.6602 118.0349 162° South  Level Estimated
03:01AM 36.5700 118.0713 162° South  Level Estimated
03:02AM 36.4798 118.1076 162° South  Level Estimated
03:03AM 36.3895 118.1438 162° South  Level Estimated
03:04AM 36.2993 118.1799 162° South  Level Estimated
03:05AM 36.2090 118.2160 162° South  Level Estimated
03:06AM 36.1187 118.2519 162° South  Level Estimated
03:07AM 36.0284 118.2878 162° South  Level Estimated
03:08AM 35.9381 118.3236 162° South  Level Estimated
03:09AM 35.8478 118.3593 162° South  Level Estimated
03:10AM 35.7575 118.3950 162° South  Level Estimated
03:11AM 35.6671 118.4305 162° South  Level Estimated
03:12AM 35.5768 118.4660 162° South  Level Estimated
03:13AM 35.4864 118.5014 162° South  Level Estimated
03:14AM 35.3960 118.5367 162° South  Level Estimated
03:15AM 35.3057 118.5719 162° South  Level Estimated
03:16AM 35.2153 118.6071 162° South  Level Estimated
03:17AM 35.1249 118.6422 162° South  Level Estimated
03:18AM 35.0345 118.6772 162° South  Level Estimated
03:19AM 34.9440 118.7121 162° South  Level Estimated
03:20AM 34.8536 118.7469 162° South  Level Estimated
03:21AM 34.7632 118.7817 162° South  Level Estimated
03:22AM 34.6727 118.8164 162° South  Level Estimated
03:23AM 34.5823 118.8510 163° South  Level Estimated
03:24AM 34.4918 118.8856 163° South  Level Estimated
03:25AM 34.4013 118.9200 163° South  Level Estimated
03:26AM 34.3108 118.9544 163° South  Level Estimated
03:27AM 34.2203 118.9887 163° South  Level Estimated
03:28AM 34.1298 119.0230 163° South  Level Estimated
03:29AM 34.0393 119.0571 163° South  Level Estimated
03:30AM 33.9488 119.0912 163° South  Level Estimated
03:31AM 33.8583 119.1253 163° South  Level Estimated
03:32AM 33.7677 119.1592 163° South  Level Estimated
03:33AM 33.6772 119.1931 163° South  Level Estimated
03:34AM 33.5866 119.2269 163° South  Level Estimated
03:35AM 33.4960 119.2607 163° South  Level Estimated
03:36AM 33.4054 119.2943 163° South  Level Estimated
03:37AM 33.3149 119.3279 163° South  Level Estimated
03:38AM 33.2243 119.3615 163° South  Level Estimated
03:39AM 33.1337 119.3949 163° South  Level Estimated
03:40AM 33.0430 119.4283 163° South  Level Estimated
03:41AM 32.9524 119.4616 163° South  Level Estimated
03:42AM 32.8618 119.4949 163° South  Level Estimated
03:43AM 32.7711 119.5281 163° South  Level Estimated
03:44AM 32.6805 119.5612 163° South  Level Estimated
03:45AM 32.5898 119.5943 163° South  Level Estimated
03:46AM 32.4992 119.6272 163° South  Level Estimated
03:47AM 32.4085 119.6601 163° South  Level Estimated
03:48AM 32.3178 119.6930 163° South  Level Estimated
03:49AM 32.2271 119.7258 163° South  Level Estimated
03:50AM 32.1364 119.7585 163° South  Level Estimated
03:51AM 32.0457 119.7912 163° South  Level Estimated
03:52AM 31.9550 119.8238 163° South  Level Estimated
03:53AM 31.8642 119.8563 163° South  Level Estimated
03:54AM 31.7735 119.8887 163° South  Level Estimated
03:55AM 31.6828 119.9212 163° South  Level Estimated
03:56AM 31.5920 119.9535 163° South  Level Estimated
03:57AM 31.5012 119.9858 163° South  Level Estimated
03:58AM 31.4105 120.0180 163° South  Level Estimated
03:59AM 31.3197 120.0501 163° South  Level Estimated
04:00AM 31.2289 120.0822 163° South  Level Estimated
04:01AM 31.1381 120.1142 163° South  Level Estimated
04:02AM 31.0473 120.1462 163° South  Level Estimated
04:03AM 30.9565 120.1781 163° South  Level Estimated
04:04AM 30.8657 120.2100 163° South  Level Estimated
04:05AM 30.7749 120.2417 163° South  Level Estimated
04:06AM 30.6840 120.2735 163° South  Level Estimated
04:07AM 30.5932 120.3051 163° South  Level Estimated
04:08AM 30.5023 120.3367 163° South  Level Estimated
04:09AM 30.4115 120.3683 163° South  Level Estimated
04:10AM 30.3206 120.3997 163° South  Level Estimated
04:11AM 30.2297 120.4312 163° South  Level Estimated
04:12AM 30.2283 120.4317 163° South  Level Estimated
04:13AM 30.2283 120.4317 North  Level Estimated